Bloomingdale, Michigan
Current Conditions -  °F | °C
As of 4:55 AM on Saturday 29 Nov 2014 (Local Time) from KLWA Reporting Station
Clear Clear  
Wind Chill: 27°   Ceiling: Unl
Heat Index: 32°   Visibility: 10mi
Dew Point: 26°   Wind: 6mph
Humidity: 76%   Direction: 160°SSE
Pressure: 29.85"   Gusts: NA
Location:  42.38°N, 85.96°W
Report Text: KLWA 290955Z AUTO 16005KT 10SM CLR 00/M03 A2985 RMK AO2 T00021035
Loading
Personal Weather Stations






























Interactive Weather Map New forecast layout! Learn more

10-Day Weather Forecast

Advertisements
Track Severe Weather on mobile